Buenos Aires, Argentina

8:33 PM ART en Septiembre 01, 2014 (GMT -0300)
Palermo | Change Station
CLOSE
Current Station
Estación meteorológica personal
Location: Buenos Aires, Ciudad Autnoma de Buenos Aires
Altura: 124 ft
Estaciones meteorológicas cercanas

Alt 124 ft 34.60 °S, 58.42 °W | Updated 6 seconds ago

Clear
Despejado
59.7 ° F
Sensación térmica 59.7 ° F
N
4.5
Viento Variable Viento desde ENE
Gusts 9.8 mph

Hoy
Alta -- | Baja -- ° F
--% Posibilidad de precipitaciones
Ayer
Alta -- | Baja -- ° F
Precip. -- pul
7:12 AM 6:35 PM
Creciente, 45% visible
Presión 29.89 pul
Visibilidad -9999.0 Millas
Nubes
Punto de rocío 58 ° F
Humedad 94%
Precipitaciones 0.00 pul
Espesor de la nieve No disponible.
UV No disponible.
Polen No disponible.
Calidad del aire No disponible.
Flu Activity No disponible.
METAR SABE 012300Z 14016KT CAVOK 15/13 Q1012

More Conditions Fewer Conditions

Presión 29.89 pul
Visibilidad -9999.0 Millas
Nubes
Punto de rocío 58 ° F
Humedad 94%
Precipitaciones 0.00 pul
Espesor de la nieve No disponible.
UV No disponible.
Polen No disponible.
Calidad del aire No disponible.
Flu Activity No disponible.
METAR SABE 012300Z 14016KT CAVOK 15/13 Q1012

More Conditions Fewer Conditions

10-Day Weather Forecast

Almanac

Astronomía

Sep. 01, 2014 Salida Puesta
Hora real 7:12 AM ART 6:35 PM ART
Crepúsculo civil 6:47 AM ART 7:00 PM ART
Crepúsculo náutico 6:18 AM ART 7:29 PM ART
Crepúsculo astronómico 5:48 AM ART 7:59 PM ART
Luna 11:11 AM ART 12:20 AM ART
Horas de luz 12h 13m
Horas de luz
11h 22m
Tomorrow will be 2m 3s longer.
Creciente, 45% of the Moon is Illuminated
Hoy
Creciente
Sep 2
Cuarto creciente
Sep 8
Luna llena
Sep 15
Cuarto menguante
Sep 24
Nueva

Extremos de hoy

Máximos del país Bajas del país

Community

WunderPhotos

Upload Photos

1,749,440 ¡fotos cargadas!

Nearby

Calidad del aire

Not available.

Grosos de nieve

Not available.

Actividad de terremotos

Ciudad Distance Mag. Tiempo y dato
No hay informes recientes de la actividad sísmica.
Magnitud mínima muestra es 2,5.

Temperaturas de aguas costeras

Lugar Temperatura
Sin partes meteorológicos de las estaciones

Estaciones meteorológicas cercanas